This is the latest recevied weather packets stored in our database for station/object DL9TPA-1. If no packets are shown the sender has not sent any weather packets the latest 10 day(s).
| Time | Temp. | Humidity | Pressure | Rain* | Wind** | Luminosity | Snow |
|---|---|---|---|---|---|---|---|
| 1777826703 | 26.11° C | 32% | 1010.1 hPa | 0 mm | - | - | - |
| 1777826100 | 26.11° C | 31% | 1010.1 hPa | 0 mm | - | - | - |
| 1777825498 | 26.11° C | 30% | 1010.1 hPa | 0 mm | - | - | - |
| 1777824896 | 26.67° C | 30% | 1010.3 hPa | 0 mm | - | - | - |
| 1777824294 | 26.67° C | 31% | 1010.3 hPa | 0 mm | - | - | - |
| 1777823692 | 26.67° C | 31% | 1010.4 hPa | 0 mm | - | - | - |
| 1777823091 | 26.67° C | 32% | 1010.5 hPa | 0 mm | - | - | - |
| 1777822488 | 26.67° C | 32% | 1010.6 hPa | 0 mm | - | - | - |
| 1777821886 | 26.67° C | 32% | 1010.6 hPa | 0 mm | - | - | - |
| 1777821285 | 27.22° C | 32% | 1010.7 hPa | 0 mm | - | - | - |
| 1777820682 | 27.78° C | 31% | 1010.9 hPa | 0 mm | - | - | - |
| 1777820080 | 27.78° C | 31% | 1011 hPa | 0 mm | - | - | - |
| 1777819478 | 28.89° C | 30% | 1011.1 hPa | 0 mm | - | - | - |
| 1777818876 | 29.44° C | 30% | 1011.2 hPa | 0 mm | - | - | - |
| 1777818275 | 30° C | 29% | 1011.3 hPa | 0 mm | - | - | - |
| 1777817674 | 30.56° C | 28% | 1011.4 hPa | 0 mm | - | - | - |
| 1777817070 | 30° C | 28% | 1011.7 hPa | 0 mm | - | - | - |
| 1777816469 | 30° C | 28% | 1011.7 hPa | 0 mm | - | - | - |
| 1777815866 | 30.56° C | 28% | 1011.8 hPa | 0 mm | - | - | - |
| 1777815265 | 31.11° C | 27% | 1011.9 hPa | 0 mm | - | - | - |
| 1777814663 | 31.67° C | 28% | 1012 hPa | 0 mm | - | - | - |
| 1777755997 | 18.33° C | 45% | 1016.3 hPa | 0 mm | - | - | - |
| 1777755677 | 18.33° C | 45% | 1016.2 hPa | 0 mm | - | - | - |
| 1777754762 | 18.33° C | 45% | 1016.3 hPa | 0 mm | - | - | - |
| 1777754160 | 18.33° C | 46% | 1016.4 hPa | 0 mm | - | - | - |
* Rain latest hour (hover to see other rain measurements)
** Current wind speed in m/s (hover to see current wind gust speed)